KLVS

Details ICAO KLVS (LVS)
Name LAS VEGAS MUNI
Region United States
Timezone America/Denver (UTC-6.0)
Plans Departing 41
Arriving 112
Stats Elevation 6,877 ft / 2,096 m (AMSL)
Location 35.654149° -105.142439°
Runways 2
Magnetic Variation 7.886° E
Sunrise 2018-05-25 11:50:30 UTC / 2018-05-25 05:50:30 Local
Sunset 2018-05-26 02:07:27 UTC / 2018-05-25 20:07:27 Local
Advertisement - Login to hide

Runways

ID Width Length Bearing (true) Bearing (mag) Surface Threshold Offset Overrun Length
02 75 ft / 23 m 5,007 ft / 1,526 m 34.79° 26.90° Asphalt 0 ft / 0 m 0 ft / 0 m
14 75 ft / 23 m 8,208 ft / 2,502 m 151.74° 143.85° Asphalt 0 ft / 0 m 0 ft / 0 m
20 75 ft / 23 m 5,007 ft / 1,526 m 214.79° 206.90° Asphalt 0 ft / 0 m 0 ft / 0 m
32 75 ft / 23 m 8,208 ft / 2,502 m 331.75° 323.86° Asphalt 0 ft / 0 m 0 ft / 0 m

Map

Weather


0- 5 10 15 20 25 30 35+ Temperature / ° C

Clouds and Precipitation
Forecast for 2018-05-25 12:00 UTC. Updated 4 hours ago

Ground ~20,000 ft ~40,000 ft Winds

METAR

KLVS 251453Z AUTO 02007KT 10SM CLR 22/M02 A3023 RMK AO2 SLP127 T02171022 51007

TAF

TAF KLVS 251126Z 2512/2612 VRB04KT P6SM SKC FM251800 18008KT P6SM SKC FM252100 20014G24KT P6SM SKC FM260100 21010KT P6SM SKC FM260800 VRB05KT P6SM SKC

Frequencies

Recorded 118.52 MHz ASOS
Unicom 122.80 MHz CTAF/UNICOM
Warning: Do not use this data for real-world aviation or navigation. No guarantee of current accuracy is given.